Adin, California
Current Conditions -  °F | °C
As of 11:55 AM on Monday 22 Dec 2014 (Local Time) from KAAT Reporting Station
Broken Clouds Broken Clouds  
Wind Chill: 12°   Ceiling: 3000
Heat Index: 12°   Visibility: 10mi
Dew Point:   Wind: 13mph
Humidity: 69%   Direction: 310°NW
Pressure: 30.31"   Gusts: NA
Location:  41.19°N, 120.95°W
Report Text: KAAT 221955Z AUTO 31011KT 10SM FEW024 BKN030 BKN036 12/06 A3031 RMK AO2 SLP251 T01170061
Loading
Personal Weather Stations






























Interactive Weather Map New forecast layout! Learn more

10-Day Weather Forecast

Advertisements
Track Severe Weather on mobile